createdAt,value
2022-08-25T00:00:13.547Z,9.20
2022-08-25T00:02:41.578Z,9.13
2022-08-25T00:05:22.000Z,9.27
2022-08-25T00:07:49.782Z,9.27
2022-08-25T00:10:17.679Z,11.05
2022-08-25T00:12:48.065Z,9.05
2022-08-25T00:15:15.746Z,9.40
2022-08-25T00:17:43.333Z,11.70
2022-08-25T00:20:11.317Z,11.02
2022-08-25T00:22:38.962Z,12.40
2022-08-25T00:25:06.891Z,9.38
2022-08-25T00:27:34.436Z,11.35
2022-08-25T00:30:03.379Z,9.10
2022-08-25T00:32:30.987Z,9.40
2022-08-25T00:35:00.767Z,11.77
2022-08-25T00:37:28.677Z,10.20
2022-08-25T00:39:57.232Z,10.77
2022-08-25T00:42:25.210Z,10.05
2022-08-25T00:44:53.819Z,9.57
2022-08-25T00:47:22.672Z,9.45
2022-08-25T00:49:51.462Z,9.57
2022-08-25T00:52:20.675Z,11.63
2022-08-25T00:54:50.368Z,9.48
2022-08-25T00:57:19.449Z,9.20
2022-08-25T01:00:00.316Z,9.10
2022-08-25T01:02:29.295Z,10.00
2022-08-25T01:04:56.946Z,9.57
2022-08-25T01:07:24.487Z,9.43
2022-08-25T01:09:53.842Z,9.80
2022-08-25T01:12:21.849Z,9.70
2022-08-25T01:14:49.972Z,11.15
2022-08-25T01:17:17.945Z,11.05
2022-08-25T01:19:46.838Z,9.93
2022-08-25T01:22:17.351Z,12.02
2022-08-25T01:24:48.105Z,9.48
2022-08-25T01:27:15.684Z,8.77
2022-08-25T01:29:43.337Z,10.73
2022-08-25T01:32:13.286Z,9.98
2022-08-25T01:34:42.089Z,8.77
2022-08-25T01:37:13.468Z,9.85
2022-08-25T01:39:43.088Z,9.32
2022-08-25T01:42:14.983Z,10.02
2022-08-25T01:44:44.135Z,9.02
2022-08-25T01:47:12.181Z,10.00
2022-08-25T01:49:39.779Z,10.70
2022-08-25T01:52:08.533Z,11.75
2022-08-25T01:54:36.043Z,9.27
2022-08-25T01:57:05.255Z,11.23
2022-08-25T01:59:32.783Z,10.35
2022-08-25T02:02:00.432Z,10.70
2022-08-25T02:04:29.459Z,10.75
2022-08-25T02:06:57.635Z,11.13
2022-08-25T02:09:25.201Z,10.90
2022-08-25T02:11:52.765Z,10.30
2022-08-25T02:14:21.890Z,10.15
2022-08-25T02:16:50.934Z,11.00
2022-08-25T02:19:19.457Z,9.07
2022-08-25T02:21:47.205Z,11.00
2022-08-25T02:24:14.907Z,9.77
2022-08-25T02:26:42.931Z,11.02
2022-08-25T02:29:10.772Z,10.85
2022-08-25T02:31:39.870Z,10.40
2022-08-25T02:34:08.075Z,12.15
2022-08-25T02:36:36.109Z,11.35
2022-08-25T02:39:04.288Z,11.63
2022-08-25T02:41:33.579Z,13.45
2022-08-25T02:44:01.756Z,11.65
2022-08-25T02:46:29.534Z,12.60
2022-08-25T02:48:58.627Z,12.48
2022-08-25T02:51:28.407Z,12.13
2022-08-25T02:53:57.399Z,11.93
2022-08-25T02:56:25.738Z,12.20
2022-08-25T02:58:53.326Z,11.27
2022-08-25T03:01:22.055Z,10.98
2022-08-25T03:03:53.070Z,12.18
2022-08-25T03:06:24.255Z,11.50
2022-08-25T03:08:52.036Z,12.38
2022-08-25T03:11:20.113Z,11.40
2022-08-25T03:13:50.081Z,14.43
2022-08-25T03:16:18.024Z,15.38
2022-08-25T03:18:45.524Z,11.93
2022-08-25T03:21:13.366Z,12.98
2022-08-25T03:23:44.961Z,12.38
2022-08-25T03:26:29.986Z,13.13
2022-08-25T03:28:57.523Z,11.77
2022-08-25T03:31:26.092Z,12.35
2022-08-25T03:33:53.896Z,13.60
2022-08-25T03:36:21.408Z,14.03
2022-08-25T03:38:50.913Z,11.68
2022-08-25T03:41:19.971Z,14.60
2022-08-25T03:43:48.329Z,12.93
2022-08-25T03:46:20.615Z,12.03
2022-08-25T03:48:48.506Z,11.27
2022-08-25T03:51:20.129Z,11.20
2022-08-25T03:53:48.023Z,12.47
2022-08-25T03:56:17.041Z,11.43
2022-08-25T03:58:44.678Z,13.00
2022-08-25T04:01:12.525Z,12.07
2022-08-25T04:03:40.339Z,12.23
2022-08-25T04:06:08.777Z,13.57
2022-08-25T04:08:36.402Z,12.25
2022-08-25T04:11:06.789Z,12.90
2022-08-25T04:13:36.730Z,12.93
2022-08-25T04:16:04.659Z,12.27
2022-08-25T04:18:32.220Z,12.48
2022-08-25T04:21:03.599Z,12.52
2022-08-25T04:23:31.134Z,12.40
2022-08-25T04:25:58.800Z,13.32
2022-08-25T04:28:26.333Z,14.75
2022-08-25T04:30:55.215Z,16.00
2022-08-25T04:33:22.765Z,16.30
2022-08-25T04:35:50.682Z,16.42
2022-08-25T04:38:18.272Z,14.50
2022-08-25T04:40:45.838Z,13.95
2022-08-25T04:43:13.394Z,13.57
2022-08-25T04:45:40.986Z,13.90
2022-08-25T04:48:09.947Z,11.85
2022-08-25T04:50:39.459Z,13.75
2022-08-25T04:53:07.113Z,14.25
2022-08-25T04:55:34.609Z,14.38
2022-08-25T04:58:03.000Z,14.48
2022-08-25T05:00:30.604Z,13.82
2022-08-25T05:02:58.098Z,14.13
2022-08-25T05:05:26.963Z,15.93
2022-08-25T05:07:54.464Z,17.75
2022-08-25T05:10:22.063Z,14.30
2022-08-25T05:12:50.229Z,13.60
2022-08-25T05:15:35.627Z,14.73
2022-08-25T05:18:03.295Z,14.63
2022-08-25T05:20:32.354Z,14.07
2022-08-25T05:23:00.084Z,15.48
2022-08-25T05:25:27.608Z,14.13
2022-08-25T05:27:55.117Z,15.18
2022-08-25T05:30:22.603Z,16.35
2022-08-25T05:32:50.141Z,16.17
2022-08-25T05:35:17.742Z,15.27
2022-08-25T05:37:46.642Z,16.20
2022-08-25T05:40:14.445Z,17.10
2022-08-25T05:42:41.991Z,15.70
2022-08-25T05:45:10.323Z,14.85
2022-08-25T05:47:43.405Z,15.82
2022-08-25T05:50:11.392Z,13.80
2022-08-25T05:52:38.969Z,15.43
2022-08-25T05:55:08.442Z,16.08
2022-08-25T05:57:36.108Z,16.48
2022-08-25T06:00:04.007Z,14.60
2022-08-25T06:02:46.280Z,13.95
2022-08-25T06:05:14.650Z,14.13
2022-08-25T06:07:42.181Z,14.43
2022-08-25T06:10:13.361Z,16.48
2022-08-25T06:12:41.577Z,14.23
2022-08-25T06:15:12.132Z,15.60
2022-08-25T06:17:40.916Z,14.20
2022-08-25T06:20:09.229Z,13.15
2022-08-25T06:22:38.285Z,12.70
2022-08-25T06:25:06.264Z,12.93
2022-08-25T06:27:35.268Z,12.73
2022-08-25T06:30:07.646Z,16.75
2022-08-25T06:32:36.943Z,14.20
2022-08-25T06:35:04.960Z,12.10
2022-08-25T06:37:32.896Z,14.20
2022-08-25T06:40:00.549Z,15.25
2022-08-25T06:42:28.347Z,12.38
2022-08-25T06:44:57.301Z,13.38
2022-08-25T06:47:24.922Z,14.00
2022-08-25T06:49:52.488Z,11.43
2022-08-25T06:52:20.485Z,12.60
2022-08-25T06:54:49.189Z,11.93
2022-08-25T06:57:16.768Z,10.20
2022-08-25T06:59:44.327Z,10.60
2022-08-25T07:02:13.228Z,9.90
2022-08-25T07:04:43.352Z,9.57
2022-08-25T07:07:10.942Z,9.00
2022-08-25T07:09:39.220Z,9.18
2022-08-25T07:12:07.351Z,9.45
2022-08-25T07:14:36.411Z,8.63
2022-08-25T07:17:11.499Z,7.90
2022-08-25T07:19:41.574Z,8.48
2022-08-25T07:22:09.510Z,8.90
2022-08-25T07:24:37.184Z,7.53
2022-08-25T07:27:05.319Z,7.97
2022-08-25T07:29:34.007Z,9.55
2022-08-25T07:32:02.004Z,8.43
2022-08-25T07:34:51.871Z,8.32
2022-08-25T07:37:47.222Z,9.05
2022-08-25T07:40:10.547Z,8.40
2022-08-25T07:42:38.175Z,8.20
2022-08-25T07:45:07.348Z,7.85
2022-08-25T07:47:35.475Z,8.18
2022-08-25T07:50:05.796Z,7.07
2022-08-25T07:52:34.883Z,7.55
2022-08-25T07:55:08.152Z,8.80
2022-08-25T07:57:36.600Z,6.68
2022-08-25T08:00:06.453Z,7.13
2022-08-25T08:02:34.251Z,6.72
2022-08-25T08:05:02.488Z,7.32
2022-08-25T08:07:42.319Z,6.22
2022-08-25T08:10:48.112Z,5.30
2022-08-25T08:13:02.237Z,6.28
2022-08-25T08:15:30.440Z,8.23
2022-08-25T08:17:58.412Z,6.82
2022-08-25T08:20:26.971Z,6.85
2022-08-25T08:22:55.020Z,8.55
2022-08-25T08:25:27.209Z,5.55
2022-08-25T08:27:55.884Z,5.18
2022-08-25T08:30:25.849Z,5.05
2022-08-25T08:33:11.708Z,7.05
2022-08-25T08:35:40.045Z,8.00
2022-08-25T08:38:14.642Z,6.38
2022-08-25T08:41:08.923Z,5.15
2022-08-25T08:43:37.398Z,6.53
2022-08-25T08:46:07.511Z,5.22
2022-08-25T08:48:50.700Z,5.80
2022-08-25T08:51:23.085Z,4.70
2022-08-25T08:53:53.683Z,5.38
2022-08-25T08:56:30.646Z,5.57
2022-08-25T08:59:05.133Z,5.63
2022-08-25T09:01:35.519Z,5.85
2022-08-25T09:04:06.433Z,5.78
2022-08-25T09:06:39.568Z,6.00
2022-08-25T09:09:07.693Z,5.57
2022-08-25T09:11:42.953Z,6.00
2022-08-25T09:14:17.373Z,5.20
2022-08-25T09:16:56.912Z,5.53
2022-08-25T09:19:55.676Z,5.45
2022-08-25T09:22:35.347Z,5.13
2022-08-25T09:25:08.956Z,4.95
2022-08-25T09:27:41.546Z,5.07
2022-08-25T09:30:11.358Z,4.70
2022-08-25T09:32:40.451Z,4.80
2022-08-25T09:35:19.406Z,5.90
2022-08-25T09:37:56.674Z,5.40
2022-08-25T09:40:26.156Z,5.78
2022-08-25T09:42:57.697Z,6.20
2022-08-25T09:45:34.177Z,6.13
2022-08-25T09:48:02.497Z,6.95
2022-08-25T09:50:32.364Z,5.97
2022-08-25T09:53:17.426Z,7.72
2022-08-25T09:55:48.410Z,9.20
2022-08-25T09:58:20.454Z,7.60
2022-08-25T10:01:04.531Z,5.95
2022-08-25T10:03:36.740Z,7.50
2022-08-25T10:06:06.564Z,6.10
2022-08-25T10:08:36.260Z,7.32
2022-08-25T10:11:08.896Z,9.18
2022-08-25T10:13:40.778Z,6.72
2022-08-25T10:16:20.155Z,7.32
2022-08-25T10:19:00.828Z,6.35
2022-08-25T10:21:28.367Z,7.10
2022-08-25T10:23:56.356Z,7.07
2022-08-25T10:26:27.205Z,7.07
2022-08-25T10:29:00.668Z,7.30
2022-08-25T10:31:34.812Z,6.55
2022-08-25T10:34:09.143Z,7.05
2022-08-25T10:36:41.891Z,7.00
2022-08-25T10:39:34.550Z,7.78
2022-08-25T10:42:09.193Z,6.90
2022-08-25T10:45:01.517Z,7.70
2022-08-25T10:47:35.991Z,7.07
2022-08-25T10:50:05.958Z,7.43
2022-08-25T10:52:37.745Z,7.32
2022-08-25T10:55:09.383Z,8.55
2022-08-25T10:57:41.028Z,7.43
2022-08-25T11:00:14.037Z,9.20
2022-08-25T11:02:55.588Z,9.90
2022-08-25T11:05:27.141Z,8.55
2022-08-25T11:07:58.244Z,8.05
2022-08-25T11:10:28.199Z,7.43
2022-08-25T11:12:57.281Z,9.13
2022-08-25T11:15:29.555Z,7.35
2022-08-25T11:17:59.937Z,7.07
2022-08-25T11:20:34.610Z,6.25
2022-08-25T11:23:08.692Z,7.18
2022-08-25T11:25:42.027Z,7.53
2022-08-25T11:28:12.872Z,7.70
2022-08-25T11:30:42.114Z,7.50
2022-08-25T11:33:13.365Z,7.70
2022-08-25T11:35:43.360Z,7.40
2022-08-25T11:38:18.862Z,6.82
2022-08-25T11:40:55.644Z,8.18
2022-08-25T11:43:29.985Z,7.53
2022-08-25T11:46:13.296Z,6.05
2022-08-25T11:48:45.455Z,7.25
2022-08-25T11:51:30.898Z,6.72
2022-08-25T11:54:08.772Z,6.20
2022-08-25T11:56:40.074Z,8.82
2022-08-25T11:59:07.957Z,6.07
2022-08-25T12:01:54.034Z,6.70
2022-08-25T12:04:44.821Z,6.43
2022-08-25T12:07:22.196Z,6.15
2022-08-25T12:10:08.508Z,6.55
2022-08-25T12:12:38.148Z,7.07
2022-08-25T12:15:16.195Z,7.97
2022-08-25T12:17:45.667Z,6.18
2022-08-25T12:20:14.935Z,6.22
2022-08-25T12:22:55.167Z,7.97
2022-08-25T12:25:30.383Z,6.30
2022-08-25T12:28:09.206Z,9.65
2022-08-25T12:30:43.581Z,6.18
2022-08-25T12:33:13.453Z,6.30
2022-08-25T12:35:52.096Z,6.13
2022-08-25T12:38:28.614Z,6.00
2022-08-25T12:40:59.505Z,5.95
2022-08-25T12:43:37.140Z,6.32
2022-08-25T12:46:23.783Z,5.32
2022-08-25T12:48:56.814Z,6.25
2022-08-25T12:51:25.628Z,5.80
2022-08-25T12:53:55.890Z,6.40
2022-08-25T12:56:27.573Z,7.20
2022-08-25T12:59:01.003Z,6.63
2022-08-25T13:01:35.837Z,9.90
2022-08-25T13:04:23.576Z,7.53
2022-08-25T13:07:09.006Z,7.13
2022-08-25T13:09:53.713Z,7.15
2022-08-25T13:12:23.453Z,7.30
2022-08-25T13:14:54.668Z,6.72
2022-08-25T13:17:29.506Z,8.32
2022-08-25T13:20:13.562Z,6.28
2022-08-25T13:22:41.738Z,7.18
2022-08-25T13:25:17.769Z,6.15
2022-08-25T13:27:50.049Z,6.13
2022-08-25T13:30:23.896Z,6.78
2022-08-25T13:32:51.930Z,8.75
2022-08-25T13:35:20.710Z,7.03
2022-08-25T13:37:47.541Z,7.25
2022-08-25T13:40:17.866Z,6.38
2022-08-25T13:42:53.055Z,7.82
2022-08-25T13:45:23.898Z,5.53
2022-08-25T13:47:55.931Z,9.00
2022-08-25T13:50:32.193Z,6.72
2022-08-25T13:53:01.215Z,6.00
2022-08-25T13:55:38.233Z,5.93
2022-08-25T13:58:24.384Z,5.78
2022-08-25T14:01:19.708Z,7.57
2022-08-25T14:03:50.786Z,5.72
2022-08-25T14:06:23.650Z,5.55
2022-08-25T14:09:06.603Z,7.95
2022-08-25T14:11:43.525Z,5.63
2022-08-25T14:14:12.516Z,5.38
2022-08-25T14:16:43.497Z,6.68
2022-08-25T14:19:19.824Z,6.72
2022-08-25T14:21:49.608Z,4.65
2022-08-25T14:24:22.567Z,7.82
2022-08-25T14:26:54.407Z,5.18
2022-08-25T14:29:23.631Z,4.95
2022-08-25T14:31:52.515Z,10.07
2022-08-25T14:34:22.509Z,5.72
2022-08-25T14:36:51.860Z,6.63
2022-08-25T14:39:20.274Z,4.90
2022-08-25T14:41:52.569Z,6.80
2022-08-25T14:44:22.174Z,4.70
2022-08-25T14:46:51.352Z,6.93
2022-08-25T14:49:25.011Z,4.90
2022-08-25T14:51:52.764Z,3.78
2022-08-25T14:54:23.488Z,5.75
2022-08-25T14:56:51.357Z,5.80
2022-08-25T14:59:18.963Z,5.60
2022-08-25T15:01:50.100Z,7.20
2022-08-25T15:04:18.914Z,5.55
2022-08-25T15:06:47.395Z,5.93
2022-08-25T15:09:16.548Z,6.20
2022-08-25T15:11:45.630Z,5.93
2022-08-25T15:14:15.516Z,4.53
2022-08-25T15:16:45.227Z,5.80
2022-08-25T15:19:15.990Z,5.07
2022-08-25T15:21:45.198Z,8.32
2022-08-25T15:24:13.246Z,8.02
2022-08-25T15:26:47.157Z,8.75
2022-08-25T15:29:14.759Z,8.40
2022-08-25T15:31:43.352Z,5.55
2022-08-25T15:34:11.714Z,5.80
2022-08-25T15:36:41.522Z,6.00
2022-08-25T15:39:09.802Z,5.68
2022-08-25T15:41:37.895Z,6.68
2022-08-25T15:44:06.584Z,4.88
2022-08-25T15:46:36.752Z,5.80
2022-08-25T15:49:07.933Z,12.45
2022-08-25T15:51:35.779Z,5.85
2022-08-25T15:54:05.637Z,7.63
2022-08-25T15:56:33.217Z,12.10
2022-08-25T15:59:04.410Z,6.68
2022-08-25T16:01:36.731Z,7.10
2022-08-25T16:04:04.945Z,5.80
2022-08-25T16:06:33.940Z,5.85
2022-08-25T16:09:01.708Z,5.30
2022-08-25T16:11:34.770Z,7.18
2022-08-25T16:14:03.245Z,9.13
2022-08-25T16:16:31.392Z,6.40
2022-08-25T16:19:00.283Z,10.52
2022-08-25T16:21:30.026Z,4.85
2022-08-25T16:23:59.939Z,4.97
2022-08-25T16:26:31.190Z,5.68
2022-08-25T16:28:58.694Z,5.97
2022-08-25T16:31:26.702Z,7.70
2022-08-25T16:33:57.715Z,5.53
2022-08-25T16:36:27.105Z,5.18
2022-08-25T16:38:56.509Z,6.20
2022-08-25T16:41:25.444Z,9.90
2022-08-25T16:43:54.721Z,6.32
2022-08-25T16:46:24.137Z,5.63
2022-08-25T16:48:51.879Z,6.72
2022-08-25T16:51:22.774Z,6.50
2022-08-25T16:54:10.729Z,6.15
2022-08-25T16:56:39.062Z,5.53
2022-08-25T16:59:08.380Z,6.10
2022-08-25T17:01:36.247Z,6.72
2022-08-25T17:04:04.861Z,10.65
2022-08-25T17:06:35.168Z,7.07
2022-08-25T17:09:02.768Z,5.10
2022-08-25T17:11:32.751Z,5.95
2022-08-25T17:14:01.814Z,8.05
2022-08-25T17:16:35.757Z,6.75
2022-08-25T17:19:05.230Z,8.52
2022-08-25T17:21:35.443Z,7.25
2022-08-25T17:24:04.858Z,7.07
2022-08-25T17:26:32.529Z,6.65
2022-08-25T17:29:01.852Z,6.20
2022-08-25T17:31:30.856Z,6.05
2022-08-25T17:34:00.037Z,6.82
2022-08-25T17:36:27.650Z,5.25
2022-08-25T17:38:56.783Z,8.18
2022-08-25T17:41:24.935Z,8.57
2022-08-25T17:43:52.530Z,8.00
2022-08-25T17:46:21.274Z,6.97
2022-08-25T17:48:48.844Z,6.72
2022-08-25T17:51:17.741Z,7.20
2022-08-25T17:53:45.264Z,8.07
2022-08-25T17:56:15.578Z,9.75
2022-08-25T17:58:44.481Z,6.30
2022-08-25T18:01:16.320Z,9.57
2022-08-25T18:03:44.469Z,11.52
2022-08-25T18:06:15.136Z,9.85
2022-08-25T18:08:51.715Z,13.57
2022-08-25T18:11:20.271Z,8.98
2022-08-25T18:13:48.307Z,7.18
2022-08-25T18:16:18.135Z,6.32
2022-08-25T18:18:45.713Z,8.48
2022-08-25T18:21:14.062Z,9.85
2022-08-25T18:23:42.364Z,7.93
2022-08-25T18:26:12.852Z,8.07
2022-08-25T18:28:43.969Z,12.43
2022-08-25T18:31:13.850Z,6.60
2022-08-25T18:33:44.842Z,18.88
2022-08-25T18:36:13.501Z,10.32
2022-08-25T18:38:58.513Z,13.85
2022-08-25T18:41:27.552Z,23.05
2022-08-25T18:43:55.335Z,11.02
2022-08-25T18:46:23.055Z,9.73
2022-08-25T18:48:53.021Z,7.07
2022-08-25T18:51:23.101Z,8.48
2022-08-25T18:53:54.701Z,7.03
2022-08-25T18:56:30.165Z,11.27
2022-08-25T18:58:58.148Z,9.88
2022-08-25T19:01:25.981Z,13.07
2022-08-25T19:03:54.793Z,9.50
2022-08-25T19:06:24.115Z,12.68
2022-08-25T19:08:51.750Z,9.30
2022-08-25T19:11:22.168Z,9.52
2022-08-25T19:13:51.999Z,21.70
2022-08-25T19:16:20.818Z,14.35
2022-08-25T19:18:51.997Z,8.98
2022-08-25T19:21:22.820Z,9.40
2022-08-25T19:23:51.526Z,10.80
2022-08-25T19:26:20.557Z,11.18
2022-08-25T19:28:49.395Z,29.45
2022-08-25T19:31:19.159Z,15.35
2022-08-25T19:33:46.880Z,17.10
2022-08-25T19:36:15.200Z,14.02
2022-08-25T19:38:44.055Z,9.88
2022-08-25T19:41:14.645Z,9.68
2022-08-25T19:43:55.437Z,11.60
2022-08-25T19:46:33.241Z,16.27
2022-08-25T19:49:07.296Z,13.05
2022-08-25T19:51:36.060Z,7.97
2022-08-25T19:54:03.696Z,6.97
2022-08-25T19:56:32.551Z,19.48
2022-08-25T19:59:00.637Z,12.23
2022-08-25T20:01:29.567Z,10.40
2022-08-25T20:03:57.136Z,10.35
2022-08-25T20:06:27.476Z,12.10
2022-08-25T20:08:58.832Z,11.82
2022-08-25T20:11:27.889Z,10.13
2022-08-25T20:13:58.158Z,9.13
2022-08-25T20:16:29.545Z,12.75
2022-08-25T20:18:57.102Z,12.50
2022-08-25T20:21:25.082Z,9.10
2022-08-25T20:24:10.095Z,11.23
2022-08-25T20:26:37.921Z,12.75
2022-08-25T20:29:08.394Z,10.20
2022-08-25T20:31:38.484Z,10.18
2022-08-25T20:34:06.845Z,14.13
2022-08-25T20:36:35.968Z,9.88
2022-08-25T20:39:04.903Z,8.82
2022-08-25T20:41:33.666Z,8.95
2022-08-25T20:44:03.780Z,11.88
2022-08-25T20:46:32.918Z,11.50
2022-08-25T20:49:02.019Z,10.90
2022-08-25T20:51:31.051Z,8.30
2022-08-25T20:53:59.434Z,11.63
2022-08-25T20:56:29.707Z,12.55
2022-08-25T20:58:57.280Z,9.57
2022-08-25T21:01:37.434Z,11.30
2022-08-25T21:04:08.245Z,11.73
2022-08-25T21:06:37.562Z,12.80
2022-08-25T21:09:06.209Z,9.95
2022-08-25T21:11:40.494Z,15.23
2022-08-25T21:14:08.316Z,10.13
2022-08-25T21:16:38.079Z,12.40
2022-08-25T21:19:09.073Z,10.52
2022-08-25T21:21:40.030Z,13.52
2022-08-25T21:24:09.887Z,9.00
2022-08-25T21:26:48.475Z,14.32
2022-08-25T21:29:16.594Z,12.35
2022-08-25T21:31:44.248Z,14.63
2022-08-25T21:34:14.196Z,11.38
2022-08-25T21:36:41.972Z,12.77
2022-08-25T21:39:09.537Z,12.77
2022-08-25T21:41:39.115Z,12.40
2022-08-25T21:44:07.781Z,10.68
2022-08-25T21:46:36.221Z,10.27
2022-08-25T21:49:06.099Z,13.02
2022-08-25T21:51:40.753Z,8.77
2022-08-25T21:54:12.632Z,11.10
2022-08-25T21:56:41.724Z,11.32
2022-08-25T21:59:11.456Z,10.15
2022-08-25T22:01:39.383Z,13.73
2022-08-25T22:04:07.265Z,12.95
2022-08-25T22:06:36.741Z,13.00
2022-08-25T22:09:05.404Z,13.00
2022-08-25T22:11:35.918Z,10.95
2022-08-25T22:14:03.942Z,12.57
2022-08-25T22:16:32.121Z,10.30
2022-08-25T22:19:00.143Z,16.40
2022-08-25T22:21:28.623Z,13.93
2022-08-25T22:23:57.464Z,10.85
2022-08-25T22:26:25.435Z,13.60
2022-08-25T22:28:55.061Z,12.05
2022-08-25T22:31:22.804Z,9.98
2022-08-25T22:33:50.848Z,17.10
2022-08-25T22:36:19.350Z,10.45
2022-08-25T22:38:47.889Z,12.02
2022-08-25T22:41:18.931Z,11.27
2022-08-25T22:43:49.543Z,13.60
2022-08-25T22:46:19.216Z,11.13
2022-08-25T22:48:46.891Z,15.32
2022-08-25T22:51:18.916Z,13.77
2022-08-25T22:53:47.460Z,15.15
2022-08-25T22:56:17.168Z,13.05
2022-08-25T22:58:51.804Z,12.88
2022-08-25T23:01:20.947Z,12.23
2022-08-25T23:03:48.746Z,13.38
2022-08-25T23:06:19.756Z,11.18
2022-08-25T23:08:50.605Z,12.32
2022-08-25T23:11:21.253Z,10.77
2022-08-25T23:13:50.756Z,10.85
2022-08-25T23:16:18.874Z,11.23
2022-08-25T23:18:46.936Z,11.65
2022-08-25T23:21:35.341Z,11.02
2022-08-25T23:24:08.803Z,13.00
2022-08-25T23:26:42.528Z,10.98
2022-08-25T23:29:17.821Z,13.27
2022-08-25T23:31:47.007Z,11.23
2022-08-25T23:34:15.751Z,12.10
2022-08-25T23:36:43.626Z,14.52
2022-08-25T23:39:11.963Z,12.43
2022-08-25T23:41:39.905Z,11.15
2022-08-25T23:44:09.363Z,12.00
2022-08-25T23:46:40.951Z,13.45
2022-08-25T23:49:09.373Z,14.63
2022-08-25T23:51:38.081Z,14.52
2022-08-25T23:54:09.659Z,11.52
2022-08-25T23:56:44.419Z,11.77
2022-08-25T23:59:14.298Z,11.52
